»·PEaware :: N969DA KTMK-KONP

N969DA :: KTMK-KONP

FLIGHT INFORMATION

Flight Status: Arrived
Operator: Privately registered:
United States
More flights under this callsign
Pilot: Anonymous 20880 (20880)
Aircraft: Unknown
(DA62)
More flights by this aircraft type
Origin: KTMK Tillamook
United States
Destination: KONP Newport Mun
United States
More flights between these airports :: More routes between these airports
Route: FETUJ3 FETUJ ONP
File this flight plan on PilotEdge
Remarks:
Altitude:
(Current/Filed)
6,000ft
Speed:
(Current/Filed)
140kts
Departed: 03-Jan-19 04:50 PM
Arrived: 03-Jan-19 05:31 PM
Distance/Time
Traveled:
51nm/0:41
Distance/Time
To Go:
Arrived

Flight Plot

Page will automatically refresh every two minutes.

Flight plan parsing failed; only flown route is shown


Map Options




Map Legend


Flown Route
Filed Route
Departure Airport
Arrival Airport
Navaid (VOR, NDB)
Fix

Horizontal Profiles

Position Reports

Time Latitude Longitude Heading Altitude Ground
Speed
03-Jan-19 16:38 45.412074 -123.812384 155 35ft 0kts
03-Jan-19 16:39 45.412074 -123.812384 155 35ft 0kts
03-Jan-19 16:40 45.412074 -123.812384 155 35ft 0kts
03-Jan-19 16:41 45.412074 -123.812384 155 35ft 0kts
03-Jan-19 16:42 45.412074 -123.812384 155 35ft 0kts
03-Jan-19 16:43 45.412074 -123.812384 155 35ft 0kts
03-Jan-19 16:44 45.412074 -123.812384 155 35ft 0kts
03-Jan-19 16:45 45.412074 -123.812384 155 35ft 0kts
03-Jan-19 16:46 45.412074 -123.812384 155 35ft 0kts
03-Jan-19 16:47 45.412074 -123.812384 155 35ft 0kts
03-Jan-19 16:48 45.412074 -123.812384 155 35ft 0kts
03-Jan-19 16:49 45.412074 -123.812384 155 35ft 0kts
03-Jan-19 16:50 45.417305 -123.814455 336 40ft 96kts
03-Jan-19 16:51 45.445399 -123.829836 338 1173ft 112kts
03-Jan-19 16:52 45.475871 -123.851487 334 2137ft 129kts
03-Jan-19 16:53 45.509433 -123.873290 334 3137ft 137kts
03-Jan-19 16:54 45.544960 -123.896186 333 4140ft 143kts
03-Jan-19 16:55 45.581671 -123.919885 331 5074ft 152kts
03-Jan-19 16:56 45.620697 -123.946804 303 5870ft 150kts
03-Jan-19 16:57 45.606708 -123.975466 185 6033ft 116kts
03-Jan-19 16:58 45.574453 -123.979214 183 6028ft 118kts
03-Jan-19 16:58 45.547380 -123.981533 182 6027ft 118kts
03-Jan-19 16:59 45.514957 -123.984185 182 6027ft 118kts
03-Jan-19 17:00 45.482382 -123.986873 182 6027ft 118kts
03-Jan-19 17:01 45.449847 -123.989580 182 6026ft 118kts
03-Jan-19 17:02 45.417361 -123.992253 182 6026ft 118kts
03-Jan-19 17:03 45.384901 -123.994976 179 5999ft 116kts
03-Jan-19 17:04 45.352937 -123.997539 180 5997ft 114kts
03-Jan-19 17:05 45.321424 -124.000018 179 5998ft 113kts
03-Jan-19 17:06 45.289613 -124.001614 179 5960ft 114kts
03-Jan-19 17:07 45.258014 -124.003411 179 5960ft 114kts
03-Jan-19 17:08 45.226542 -124.005213 179 5961ft 113kts
03-Jan-19 17:09 45.195183 -124.007034 179 5960ft 113kts
03-Jan-19 17:10 45.163773 -124.008840 179 5959ft 113kts
03-Jan-19 17:11 45.132464 -124.010642 179 5959ft 113kts
03-Jan-19 17:12 45.101092 -124.012432 179 5964ft 113kts
03-Jan-19 17:13 45.069809 -124.014189 180 5969ft 113kts
03-Jan-19 17:14 45.038617 -124.015997 182 5975ft 112kts
03-Jan-19 17:15 45.007382 -124.017792 185 5984ft 112kts
03-Jan-19 17:16 44.976210 -124.019618 186 5990ft 111kts
03-Jan-19 17:17 44.946114 -124.021345 186 5820ft 113kts
03-Jan-19 17:18 44.914715 -124.023129 186 5597ft 111kts
03-Jan-19 17:19 44.885612 -124.041189 206 5196ft 122kts
03-Jan-19 17:20 44.856959 -124.063967 205 4381ft 107kts
03-Jan-19 17:21 44.830720 -124.074802 179 3264ft 102kts
03-Jan-19 17:22 44.799128 -124.073184 177 2369ft 120kts
03-Jan-19 17:23 44.766133 -124.071031 177 2101ft 117kts
03-Jan-19 17:24 44.734415 -124.068986 175 2103ft 112kts
03-Jan-19 17:25 44.703145 -124.066954 179 2099ft 112kts
03-Jan-19 17:26 44.671572 -124.064839 177 1778ft 120kts
03-Jan-19 17:27 44.637914 -124.062610 176 1141ft 110kts
03-Jan-19 17:28 44.610916 -124.060920 176 727ft 76kts
03-Jan-19 17:29 44.587885 -124.059385 178 182ft 76kts
03-Jan-19 17:30 44.578891 -124.060430 268 126ft 13kts
03-Jan-19 17:31 44.579073 -124.061107 85 123ft 0kts
03-Jan-19 17:32 44.579073 -124.061107 85 123ft 0kts
03-Jan-19 17:33 44.579073 -124.061107 85 123ft 0kts
03-Jan-19 17:34 44.579073 -124.061107 85 123ft 0kts
03-Jan-19 17:35 44.578902 -124.060880 115 125ft 10kts
03-Jan-19 17:36 44.585528 -124.060403 359 131ft 30kts
03-Jan-19 17:37 44.586731 -124.060341 71 133ft 0kts
03-Jan-19 17:38 44.586731 -124.060341 71 133ft 0kts

Navigation Log

Ident Type
Flight plan parsing failed, navigation log unavailable